sensor_id;sensor_type;location;lat;lon;timestamp;temperature;humidity
12374;DHT22;6251;51.762;8.660;2023-10-19T01:01:51;9.20;99.90
12374;DHT22;6251;51.762;8.660;2023-10-19T01:11:58;9.20;99.90
12374;DHT22;6251;51.762;8.660;2023-10-19T02:53:49;9.30;99.90
12374;DHT22;6251;51.762;8.660;2023-10-19T04:04:51;9.70;99.90
12374;DHT22;6251;51.762;8.660;2023-10-19T04:14:52;9.80;99.90
12374;DHT22;6251;51.762;8.660;2023-10-19T04:24:54;9.90;99.90
12374;DHT22;6251;51.762;8.660;2023-10-19T04:34:55;10.00;99.90
12374;DHT22;6251;51.762;8.660;2023-10-19T04:44:55;10.10;99.90
12374;DHT22;6251;51.762;8.660;2023-10-19T04:54:56;10.10;99.90
12374;DHT22;6251;51.762;8.660;2023-10-19T05:04:57;10.20;99.90
12374;DHT22;6251;51.762;8.660;2023-10-19T05:14:58;10.20;99.90
12374;DHT22;6251;51.762;8.660;2023-10-19T05:24:58;10.40;99.90
12374;DHT22;6251;51.762;8.660;2023-10-19T05:34:59;10.50;99.90
12374;DHT22;6251;51.762;8.660;2023-10-19T05:45:05;10.50;99.90
12374;DHT22;6251;51.762;8.660;2023-10-19T05:55:06;10.60;99.90
12374;DHT22;6251;51.762;8.660;2023-10-19T06:05:07;10.60;99.90
12374;DHT22;6251;51.762;8.660;2023-10-19T06:15:09;10.70;99.90
12374;DHT22;6251;51.762;8.660;2023-10-19T06:25:11;10.80;99.90
12374;DHT22;6251;51.762;8.660;2023-10-19T06:35:11;10.80;99.90
12374;DHT22;6251;51.762;8.660;2023-10-19T06:45:13;10.90;99.90
12374;DHT22;6251;51.762;8.660;2023-10-19T06:55:15;11.00;99.90
12374;DHT22;6251;51.762;8.660;2023-10-19T07:05:22;11.00;99.90
12374;DHT22;6251;51.762;8.660;2023-10-19T07:15:26;11.20;99.90
12374;DHT22;6251;51.762;8.660;2023-10-19T07:25:27;11.30;99.90
12374;DHT22;6251;51.762;8.660;2023-10-19T07:35:28;11.30;99.90
12374;DHT22;6251;51.762;8.660;2023-10-19T07:45:31;11.40;99.90
12374;DHT22;6251;51.762;8.660;2023-10-19T07:55:32;11.60;99.90
12374;DHT22;6251;51.762;8.660;2023-10-19T08:05:33;11.80;99.90
12374;DHT22;6251;51.762;8.660;2023-10-19T08:15:34;12.10;99.90
12374;DHT22;6251;51.762;8.660;2023-10-19T08:25:34;12.20;99.90
12374;DHT22;6251;51.762;8.660;2023-10-19T08:35:35;12.40;99.90
12374;DHT22;6251;51.762;8.660;2023-10-19T08:45:36;12.60;99.90
12374;DHT22;6251;51.762;8.660;2023-10-19T08:55:36;12.80;99.90
12374;DHT22;6251;51.762;8.660;2023-10-19T09:05:38;12.90;99.90
12374;DHT22;6251;51.762;8.660;2023-10-19T09:15:40;12.90;99.90
12374;DHT22;6251;51.762;8.660;2023-10-19T09:25:41;13.10;99.90
12374;DHT22;6251;51.762;8.660;2023-10-19T09:35:49;13.20;99.90
12374;DHT22;6251;51.762;8.660;2023-10-19T09:45:56;13.50;99.90
12374;DHT22;6251;51.762;8.660;2023-10-19T09:55:58;13.80;99.90
12374;DHT22;6251;51.762;8.660;2023-10-19T10:06:00;13.90;99.90
12374;DHT22;6251;51.762;8.660;2023-10-19T10:16:00;14.00;99.90
12374;DHT22;6251;51.762;8.660;2023-10-19T10:26:04;14.20;99.90
12374;DHT22;6251;51.762;8.660;2023-10-19T10:36:06;14.30;99.90
12374;DHT22;6251;51.762;8.660;2023-10-19T10:46:07;14.60;99.90
12374;DHT22;6251;51.762;8.660;2023-10-19T10:56:08;14.90;99.90
12374;DHT22;6251;51.762;8.660;2023-10-19T11:06:10;15.20;99.90
12374;DHT22;6251;51.762;8.660;2023-10-19T11:16:22;15.30;99.90
12374;DHT22;6251;51.762;8.660;2023-10-19T11:26:24;15.20;99.90
12374;DHT22;6251;51.762;8.660;2023-10-19T11:36:25;15.60;99.90
12374;DHT22;6251;51.762;8.660;2023-10-19T11:46:26;16.10;99.90
12374;DHT22;6251;51.762;8.660;2023-10-19T11:56:27;16.30;99.90
12374;DHT22;6251;51.762;8.660;2023-10-19T12:06:28;16.50;99.90
12374;DHT22;6251;51.762;8.660;2023-10-19T12:16:29;16.80;99.90
12374;DHT22;6251;51.762;8.660;2023-10-19T12:26:31;17.20;99.90
12374;DHT22;6251;51.762;8.660;2023-10-19T12:36:32;17.30;99.90
12374;DHT22;6251;51.762;8.660;2023-10-19T12:46:33;17.40;99.90
12374;DHT22;6251;51.762;8.660;2023-10-19T12:56:37;17.50;99.90
12374;DHT22;6251;51.762;8.660;2023-10-19T13:06:39;17.50;99.90
12374;DHT22;6251;51.762;8.660;2023-10-19T13:16:40;17.70;99.90
12374;DHT22;6251;51.762;8.660;2023-10-19T13:26:41;17.60;99.90
12374;DHT22;6251;51.762;8.660;2023-10-19T13:36:46;17.50;99.90
12374;DHT22;6251;51.762;8.660;2023-10-19T13:46:47;17.40;99.90
12374;DHT22;6251;51.762;8.660;2023-10-19T13:56:47;17.30;99.90
12374;DHT22;6251;51.762;8.660;2023-10-19T14:06:48;17.20;99.90
12374;DHT22;6251;51.762;8.660;2023-10-19T14:16:50;17.00;99.90
12374;DHT22;6251;51.762;8.660;2023-10-19T14:26:50;16.90;99.90
12374;DHT22;6251;51.762;8.660;2023-10-19T14:36:51;16.70;99.90
12374;DHT22;6251;51.762;8.660;2023-10-19T14:46:53;16.50;99.90
12374;DHT22;6251;51.762;8.660;2023-10-19T14:56:53;16.30;99.90
12374;DHT22;6251;51.762;8.660;2023-10-19T15:06:54;16.10;99.90
12374;DHT22;6251;51.762;8.660;2023-10-19T15:16:55;15.90;99.90
12374;DHT22;6251;51.762;8.660;2023-10-19T15:26:55;15.70;99.90
12374;DHT22;6251;51.762;8.660;2023-10-19T15:36:56;15.60;99.90
12374;DHT22;6251;51.762;8.660;2023-10-19T15:46:56;15.50;99.90
12374;DHT22;6251;51.762;8.660;2023-10-19T15:56:57;15.30;99.90
12374;DHT22;6251;51.762;8.660;2023-10-19T16:06:58;15.10;99.90
12374;DHT22;6251;51.762;8.660;2023-10-19T16:16:58;14.90;99.90
12374;DHT22;6251;51.762;8.660;2023-10-19T16:26:59;14.80;99.90
12374;DHT22;6251;51.762;8.660;2023-10-19T16:36:59;14.70;99.90
12374;DHT22;6251;51.762;8.660;2023-10-19T16:47:00;14.60;99.90
12374;DHT22;6251;51.762;8.660;2023-10-19T16:57:02;14.50;99.90
12374;DHT22;6251;51.762;8.660;2023-10-19T17:07:02;14.40;99.90
12374;DHT22;6251;51.762;8.660;2023-10-19T17:17:03;14.30;99.90
12374;DHT22;6251;51.762;8.660;2023-10-19T17:27:03;14.20;99.90
12374;DHT22;6251;51.762;8.660;2023-10-19T17:37:07;14.20;99.90
12374;DHT22;6251;51.762;8.660;2023-10-19T17:47:08;14.00;99.90
12374;DHT22;6251;51.762;8.660;2023-10-19T17:57:08;14.00;99.90
12374;DHT22;6251;51.762;8.660;2023-10-19T18:07:09;14.00;99.90
12374;DHT22;6251;51.762;8.660;2023-10-19T18:17:10;13.90;99.90
12374;DHT22;6251;51.762;8.660;2023-10-19T18:27:11;13.90;99.90
12374;DHT22;6251;51.762;8.660;2023-10-19T18:37:12;13.90;99.90
12374;DHT22;6251;51.762;8.660;2023-10-19T18:47:12;13.90;99.90
12374;DHT22;6251;51.762;8.660;2023-10-19T18:57:13;13.80;99.90
12374;DHT22;6251;51.762;8.660;2023-10-19T19:07:14;13.70;99.90
12374;DHT22;6251;51.762;8.660;2023-10-19T19:17:14;13.50;99.90
12374;DHT22;6251;51.762;8.660;2023-10-19T19:27:15;13.40;99.90
12374;DHT22;6251;51.762;8.660;2023-10-19T19:37:15;13.30;99.90
12374;DHT22;6251;51.762;8.660;2023-10-19T19:47:16;13.00;99.90
12374;DHT22;6251;51.762;8.660;2023-10-19T19:57:17;13.00;99.90
12374;DHT22;6251;51.762;8.660;2023-10-19T20:07:20;13.00;99.90
12374;DHT22;6251;51.762;8.660;2023-10-19T20:17:20;13.00;99.90
12374;DHT22;6251;51.762;8.660;2023-10-19T20:27:21;12.80;99.90
12374;DHT22;6251;51.762;8.660;2023-10-19T20:37:22;12.70;99.90
12374;DHT22;6251;51.762;8.660;2023-10-19T20:47:22;12.60;99.90
12374;DHT22;6251;51.762;8.660;2023-10-19T20:57:23;12.60;99.90
12374;DHT22;6251;51.762;8.660;2023-10-19T23:00:17;12.70;99.90
12374;DHT22;6251;51.762;8.660;2023-10-19T23:10:20;12.70;99.90
